sensor_id;sensor_type;location;lat;lon;timestamp;P1;durP1;ratioP1;P2;durP2;ratioP2
14768;SDS011;7476;49.404;11.152;2022-10-31T00:01:42;13.57;;;9.47;;
14768;SDS011;7476;49.404;11.152;2022-10-31T00:04:10;10.80;;;8.70;;
14768;SDS011;7476;49.404;11.152;2022-10-31T00:06:37;13.97;;;8.73;;
14768;SDS011;7476;49.404;11.152;2022-10-31T00:09:04;12.53;;;8.70;;
14768;SDS011;7476;49.404;11.152;2022-10-31T00:11:31;10.73;;;8.60;;
14768;SDS011;7476;49.404;11.152;2022-10-31T00:13:58;17.90;;;8.83;;
14768;SDS011;7476;49.404;11.152;2022-10-31T00:16:25;12.73;;;8.60;;
14768;SDS011;7476;49.404;11.152;2022-10-31T00:18:55;13.00;;;8.60;;
14768;SDS011;7476;49.404;11.152;2022-10-31T00:21:23;13.53;;;8.80;;
14768;SDS011;7476;49.404;11.152;2022-10-31T00:23:51;13.20;;;8.50;;
14768;SDS011;7476;49.404;11.152;2022-10-31T00:26:17;11.83;;;8.50;;
14768;SDS011;7476;49.404;11.152;2022-10-31T00:28:44;12.87;;;9.03;;
14768;SDS011;7476;49.404;11.152;2022-10-31T00:31:12;10.30;;;8.60;;
14768;SDS011;7476;49.404;11.152;2022-10-31T00:33:40;14.03;;;8.53;;
14768;SDS011;7476;49.404;11.152;2022-10-31T00:36:11;12.30;;;8.33;;
14768;SDS011;7476;49.404;11.152;2022-10-31T00:38:39;9.23;;;7.70;;
14768;SDS011;7476;49.404;11.152;2022-10-31T00:41:05;11.10;;;7.73;;
14768;SDS011;7476;49.404;11.152;2022-10-31T00:43:33;11.07;;;8.23;;
14768;SDS011;7476;49.404;11.152;2022-10-31T00:46:00;12.90;;;8.37;;
14768;SDS011;7476;49.404;11.152;2022-10-31T00:48:27;11.00;;;7.90;;
14768;SDS011;7476;49.404;11.152;2022-10-31T00:50:53;14.23;;;8.23;;
14768;SDS011;7476;49.404;11.152;2022-10-31T00:53:22;12.53;;;8.33;;
14768;SDS011;7476;49.404;11.152;2022-10-31T00:55:48;10.27;;;7.80;;
14768;SDS011;7476;49.404;11.152;2022-10-31T00:58:15;10.03;;;7.47;;
14768;SDS011;7476;49.404;11.152;2022-10-31T01:00:42;13.47;;;7.60;;
14768;SDS011;7476;49.404;11.152;2022-10-31T01:03:09;10.80;;;8.10;;
14768;SDS011;7476;49.404;11.152;2022-10-31T01:05:35;9.77;;;7.13;;
14768;SDS011;7476;49.404;11.152;2022-10-31T01:08:02;10.93;;;7.67;;
14768;SDS011;7476;49.404;11.152;2022-10-31T01:10:30;10.27;;;7.67;;
14768;SDS011;7476;49.404;11.152;2022-10-31T01:12:57;12.23;;;7.70;;
14768;SDS011;7476;49.404;11.152;2022-10-31T01:15:24;13.80;;;8.40;;
14768;SDS011;7476;49.404;11.152;2022-10-31T01:17:51;10.83;;;8.03;;
14768;SDS011;7476;49.404;11.152;2022-10-31T01:20:18;12.80;;;8.43;;
14768;SDS011;7476;49.404;11.152;2022-10-31T01:22:45;11.23;;;8.27;;
14768;SDS011;7476;49.404;11.152;2022-10-31T01:25:12;11.80;;;8.20;;
14768;SDS011;7476;49.404;11.152;2022-10-31T01:27:40;10.33;;;7.80;;
14768;SDS011;7476;49.404;11.152;2022-10-31T01:30:07;9.73;;;7.87;;
14768;SDS011;7476;49.404;11.152;2022-10-31T01:32:34;10.47;;;8.43;;
14768;SDS011;7476;49.404;11.152;2022-10-31T01:35:02;13.60;;;8.07;;
14768;SDS011;7476;49.404;11.152;2022-10-31T01:37:30;11.37;;;8.13;;
14768;SDS011;7476;49.404;11.152;2022-10-31T01:39:57;11.67;;;7.80;;
14768;SDS011;7476;49.404;11.152;2022-10-31T01:42:23;10.70;;;7.97;;
14768;SDS011;7476;49.404;11.152;2022-10-31T01:44:56;15.40;;;8.33;;
14768;SDS011;7476;49.404;11.152;2022-10-31T01:47:31;11.67;;;8.23;;
14768;SDS011;7476;49.404;11.152;2022-10-31T01:50:05;11.37;;;8.17;;
14768;SDS011;7476;49.404;11.152;2022-10-31T01:52:37;10.30;;;7.90;;
14768;SDS011;7476;49.404;11.152;2022-10-31T01:55:07;9.90;;;7.20;;
14768;SDS011;7476;49.404;11.152;2022-10-31T01:57:37;10.53;;;7.87;;
14768;SDS011;7476;49.404;11.152;2022-10-31T02:00:09;10.93;;;8.27;;
14768;SDS011;7476;49.404;11.152;2022-10-31T02:02:37;12.07;;;7.73;;
14768;SDS011;7476;49.404;11.152;2022-10-31T02:05:05;15.20;;;8.57;;
14768;SDS011;7476;49.404;11.152;2022-10-31T02:07:36;11.50;;;8.10;;
14768;SDS011;7476;49.404;11.152;2022-10-31T02:10:05;9.13;;;7.90;;
14768;SDS011;7476;49.404;11.152;2022-10-31T02:12:33;11.33;;;8.40;;
14768;SDS011;7476;49.404;11.152;2022-10-31T02:15:02;13.30;;;8.70;;
14768;SDS011;7476;49.404;11.152;2022-10-31T02:17:31;18.03;;;9.10;;
14768;SDS011;7476;49.404;11.152;2022-10-31T02:20:01;13.67;;;7.97;;
14768;SDS011;7476;49.404;11.152;2022-10-31T02:22:37;10.90;;;8.30;;
14768;SDS011;7476;49.404;11.152;2022-10-31T02:25:19;10.33;;;7.67;;
14768;SDS011;7476;49.404;11.152;2022-10-31T02:31:01;9.50;;;8.07;;
14768;SDS011;7476;49.404;11.152;2022-10-31T02:33:40;11.13;;;8.10;;
14768;SDS011;7476;49.404;11.152;2022-10-31T02:36:10;11.10;;;8.23;;
14768;SDS011;7476;49.404;11.152;2022-10-31T02:38:45;9.20;;;7.73;;
14768;SDS011;7476;49.404;11.152;2022-10-31T02:41:18;11.60;;;7.70;;
14768;SDS011;7476;49.404;11.152;2022-10-31T02:43:54;10.03;;;7.00;;
14768;SDS011;7476;49.404;11.152;2022-10-31T02:46:31;11.87;;;7.57;;
14768;SDS011;7476;49.404;11.152;2022-10-31T02:49:03;15.17;;;8.83;;
14768;SDS011;7476;49.404;11.152;2022-10-31T02:51:36;12.73;;;7.87;;
14768;SDS011;7476;49.404;11.152;2022-10-31T02:54:04;11.60;;;8.10;;
14768;SDS011;7476;49.404;11.152;2022-10-31T02:56:31;9.87;;;7.63;;
14768;SDS011;7476;49.404;11.152;2022-10-31T02:58:58;14.10;;;8.73;;
14768;SDS011;7476;49.404;11.152;2022-10-31T03:01:39;12.43;;;8.60;;
14768;SDS011;7476;49.404;11.152;2022-10-31T03:07:23;13.20;;;8.50;;
14768;SDS011;7476;49.404;11.152;2022-10-31T03:10:01;10.80;;;7.47;;
14768;SDS011;7476;49.404;11.152;2022-10-31T03:12:34;13.27;;;7.97;;
14768;SDS011;7476;49.404;11.152;2022-10-31T03:15:07;12.87;;;7.63;;
14768;SDS011;7476;49.404;11.152;2022-10-31T03:17:42;12.37;;;7.77;;
14768;SDS011;7476;49.404;11.152;2022-10-31T03:20:17;9.67;;;8.00;;
14768;SDS011;7476;49.404;11.152;2022-10-31T03:22:47;8.57;;;7.57;;
14768;SDS011;7476;49.404;11.152;2022-10-31T03:25:14;17.83;;;8.57;;
14768;SDS011;7476;49.404;11.152;2022-10-31T03:27:42;16.63;;;8.43;;
14768;SDS011;7476;49.404;11.152;2022-10-31T03:30:10;11.37;;;8.60;;
14768;SDS011;7476;49.404;11.152;2022-10-31T03:32:41;12.13;;;8.27;;
14768;SDS011;7476;49.404;11.152;2022-10-31T03:35:09;12.50;;;8.27;;
14768;SDS011;7476;49.404;11.152;2022-10-31T03:37:39;12.77;;;7.97;;
14768;SDS011;7476;49.404;11.152;2022-10-31T03:40:08;10.33;;;8.37;;
14768;SDS011;7476;49.404;11.152;2022-10-31T03:42:38;15.83;;;8.83;;
14768;SDS011;7476;49.404;11.152;2022-10-31T03:45:09;14.03;;;8.40;;
14768;SDS011;7476;49.404;11.152;2022-10-31T03:47:41;12.93;;;8.00;;
14768;SDS011;7476;49.404;11.152;2022-10-31T03:50:10;15.13;;;8.37;;
14768;SDS011;7476;49.404;11.152;2022-10-31T03:52:41;15.83;;;8.47;;
14768;SDS011;7476;49.404;11.152;2022-10-31T03:55:15;12.97;;;8.37;;
14768;SDS011;7476;49.404;11.152;2022-10-31T03:57:44;11.70;;;7.63;;
14768;SDS011;7476;49.404;11.152;2022-10-31T04:00:17;11.50;;;8.07;;
14768;SDS011;7476;49.404;11.152;2022-10-31T04:02:47;11.23;;;8.50;;
14768;SDS011;7476;49.404;11.152;2022-10-31T04:05:17;12.03;;;8.63;;
14768;SDS011;7476;49.404;11.152;2022-10-31T04:07:46;10.73;;;8.50;;
14768;SDS011;7476;49.404;11.152;2022-10-31T04:10:16;10.80;;;7.13;;
14768;SDS011;7476;49.404;11.152;2022-10-31T04:12:46;11.23;;;7.93;;
14768;SDS011;7476;49.404;11.152;2022-10-31T04:15:16;12.23;;;7.90;;
14768;SDS011;7476;49.404;11.152;2022-10-31T04:17:43;9.87;;;6.97;;
14768;SDS011;7476;49.404;11.152;2022-10-31T04:20:14;13.00;;;7.40;;
14768;SDS011;7476;49.404;11.152;2022-10-31T04:22:42;11.03;;;6.93;;
14768;SDS011;7476;49.404;11.152;2022-10-31T04:25:09;7.83;;;6.70;;
14768;SDS011;7476;49.404;11.152;2022-10-31T04:27:35;9.83;;;6.80;;
14768;SDS011;7476;49.404;11.152;2022-10-31T04:30:02;9.40;;;6.87;;
14768;SDS011;7476;49.404;11.152;2022-10-31T04:32:30;10.30;;;7.20;;
14768;SDS011;7476;49.404;11.152;2022-10-31T04:34:58;15.07;;;7.53;;
14768;SDS011;7476;49.404;11.152;2022-10-31T04:37:24;11.63;;;7.77;;
14768;SDS011;7476;49.404;11.152;2022-10-31T04:39:51;8.87;;;7.00;;
14768;SDS011;7476;49.404;11.152;2022-10-31T04:42:18;13.43;;;7.43;;
14768;SDS011;7476;49.404;11.152;2022-10-31T04:44:44;10.80;;;7.57;;
14768;SDS011;7476;49.404;11.152;2022-10-31T04:47:11;11.07;;;7.53;;
14768;SDS011;7476;49.404;11.152;2022-10-31T04:49:38;11.77;;;7.03;;
14768;SDS011;7476;49.404;11.152;2022-10-31T04:52:06;9.97;;;7.13;;
14768;SDS011;7476;49.404;11.152;2022-10-31T04:54:33;9.70;;;7.47;;
14768;SDS011;7476;49.404;11.152;2022-10-31T04:57:00;9.40;;;7.07;;
14768;SDS011;7476;49.404;11.152;2022-10-31T04:59:27;9.80;;;7.07;;
14768;SDS011;7476;49.404;11.152;2022-10-31T05:01:53;10.83;;;6.90;;
14768;SDS011;7476;49.404;11.152;2022-10-31T05:04:20;9.73;;;7.20;;
14768;SDS011;7476;49.404;11.152;2022-10-31T05:06:47;10.77;;;7.20;;
14768;SDS011;7476;49.404;11.152;2022-10-31T05:09:15;12.03;;;7.33;;
14768;SDS011;7476;49.404;11.152;2022-10-31T05:11:42;9.33;;;7.37;;
14768;SDS011;7476;49.404;11.152;2022-10-31T05:14:08;12.87;;;8.57;;
14768;SDS011;7476;49.404;11.152;2022-10-31T05:16:35;13.23;;;8.07;;
14768;SDS011;7476;49.404;11.152;2022-10-31T05:19:02;11.93;;;8.47;;
14768;SDS011;7476;49.404;11.152;2022-10-31T05:21:28;11.90;;;8.17;;
14768;SDS011;7476;49.404;11.152;2022-10-31T05:23:55;13.47;;;8.37;;
14768;SDS011;7476;49.404;11.152;2022-10-31T05:26:23;13.00;;;8.27;;
14768;SDS011;7476;49.404;11.152;2022-10-31T05:28:50;10.30;;;8.50;;
14768;SDS011;7476;49.404;11.152;2022-10-31T05:31:17;11.17;;;8.00;;
14768;SDS011;7476;49.404;11.152;2022-10-31T05:33:43;14.53;;;8.77;;
14768;SDS011;7476;49.404;11.152;2022-10-31T05:36:10;10.17;;;8.07;;
14768;SDS011;7476;49.404;11.152;2022-10-31T05:38:37;12.10;;;8.20;;
14768;SDS011;7476;49.404;11.152;2022-10-31T05:41:04;11.03;;;8.43;;
14768;SDS011;7476;49.404;11.152;2022-10-31T05:43:32;9.33;;;7.50;;
14768;SDS011;7476;49.404;11.152;2022-10-31T05:45:58;12.33;;;7.87;;
14768;SDS011;7476;49.404;11.152;2022-10-31T05:48:25;12.93;;;7.93;;
14768;SDS011;7476;49.404;11.152;2022-10-31T05:50:52;10.97;;;7.40;;
14768;SDS011;7476;49.404;11.152;2022-10-31T05:53:18;9.17;;;7.23;;
14768;SDS011;7476;49.404;11.152;2022-10-31T05:55:46;10.93;;;7.93;;
14768;SDS011;7476;49.404;11.152;2022-10-31T05:58:13;11.93;;;7.77;;
14768;SDS011;7476;49.404;11.152;2022-10-31T06:00:41;10.83;;;7.97;;
14768;SDS011;7476;49.404;11.152;2022-10-31T06:03:08;9.37;;;8.13;;
14768;SDS011;7476;49.404;11.152;2022-10-31T06:05:35;12.87;;;8.30;;
14768;SDS011;7476;49.404;11.152;2022-10-31T06:08:02;12.03;;;7.50;;
14768;SDS011;7476;49.404;11.152;2022-10-31T06:10:28;10.43;;;7.73;;
14768;SDS011;7476;49.404;11.152;2022-10-31T06:12:56;9.70;;;7.63;;
14768;SDS011;7476;49.404;11.152;2022-10-31T06:15:22;14.83;;;9.07;;
14768;SDS011;7476;49.404;11.152;2022-10-31T06:17:58;11.67;;;7.80;;
14768;SDS011;7476;49.404;11.152;2022-10-31T06:20:25;12.20;;;8.27;;
14768;SDS011;7476;49.404;11.152;2022-10-31T06:22:52;11.97;;;8.33;;
14768;SDS011;7476;49.404;11.152;2022-10-31T06:25:19;12.90;;;8.40;;
14768;SDS011;7476;49.404;11.152;2022-10-31T06:27:46;11.80;;;8.23;;
14768;SDS011;7476;49.404;11.152;2022-10-31T06:30:13;13.50;;;8.40;;
14768;SDS011;7476;49.404;11.152;2022-10-31T06:32:40;17.40;;;10.00;;
14768;SDS011;7476;49.404;11.152;2022-10-31T06:35:08;12.70;;;8.30;;
14768;SDS011;7476;49.404;11.152;2022-10-31T06:37:35;14.60;;;9.10;;
14768;SDS011;7476;49.404;11.152;2022-10-31T06:40:01;13.23;;;9.20;;
14768;SDS011;7476;49.404;11.152;2022-10-31T06:42:28;11.37;;;8.83;;
14768;SDS011;7476;49.404;11.152;2022-10-31T06:44:55;11.60;;;8.27;;
14768;SDS011;7476;49.404;11.152;2022-10-31T06:47:22;10.90;;;8.33;;
14768;SDS011;7476;49.404;11.152;2022-10-31T06:49:48;12.03;;;7.57;;
14768;SDS011;7476;49.404;11.152;2022-10-31T06:52:16;12.57;;;8.07;;
14768;SDS011;7476;49.404;11.152;2022-10-31T06:54:43;10.83;;;7.27;;
14768;SDS011;7476;49.404;11.152;2022-10-31T06:57:10;11.90;;;8.77;;
14768;SDS011;7476;49.404;11.152;2022-10-31T06:59:37;12.53;;;8.57;;
14768;SDS011;7476;49.404;11.152;2022-10-31T07:02:05;14.87;;;8.83;;
14768;SDS011;7476;49.404;11.152;2022-10-31T07:04:33;13.47;;;8.73;;
14768;SDS011;7476;49.404;11.152;2022-10-31T07:07:00;13.03;;;8.37;;
14768;SDS011;7476;49.404;11.152;2022-10-31T07:09:28;15.83;;;8.50;;
14768;SDS011;7476;49.404;11.152;2022-10-31T07:11:54;10.73;;;7.23;;
14768;SDS011;7476;49.404;11.152;2022-10-31T07:14:21;11.60;;;7.80;;
14768;SDS011;7476;49.404;11.152;2022-10-31T07:16:48;12.13;;;8.07;;
14768;SDS011;7476;49.404;11.152;2022-10-31T07:19:16;13.63;;;8.00;;
14768;SDS011;7476;49.404;11.152;2022-10-31T07:21:43;10.80;;;7.20;;
14768;SDS011;7476;49.404;11.152;2022-10-31T07:24:09;10.33;;;7.47;;
14768;SDS011;7476;49.404;11.152;2022-10-31T07:26:37;10.87;;;7.03;;
14768;SDS011;7476;49.404;11.152;2022-10-31T07:29:04;9.43;;;7.53;;
14768;SDS011;7476;49.404;11.152;2022-10-31T07:31:31;10.00;;;7.30;;
14768;SDS011;7476;49.404;11.152;2022-10-31T07:33:58;12.77;;;8.70;;
14768;SDS011;7476;49.404;11.152;2022-10-31T07:36:24;11.93;;;7.60;;
14768;SDS011;7476;49.404;11.152;2022-10-31T07:38:51;9.47;;;6.90;;
14768;SDS011;7476;49.404;11.152;2022-10-31T07:41:18;10.70;;;7.17;;
14768;SDS011;7476;49.404;11.152;2022-10-31T07:43:46;10.50;;;7.20;;
14768;SDS011;7476;49.404;11.152;2022-10-31T07:46:13;10.13;;;7.07;;
14768;SDS011;7476;49.404;11.152;2022-10-31T07:48:39;9.10;;;6.77;;
14768;SDS011;7476;49.404;11.152;2022-10-31T07:51:06;10.27;;;7.23;;
14768;SDS011;7476;49.404;11.152;2022-10-31T07:53:33;10.07;;;6.90;;
14768;SDS011;7476;49.404;11.152;2022-10-31T07:55:59;12.53;;;7.30;;
14768;SDS011;7476;49.404;11.152;2022-10-31T07:58:26;10.33;;;7.13;;
14768;SDS011;7476;49.404;11.152;2022-10-31T08:00:54;10.13;;;6.67;;
14768;SDS011;7476;49.404;11.152;2022-10-31T08:03:21;9.70;;;6.90;;
14768;SDS011;7476;49.404;11.152;2022-10-31T08:05:48;14.70;;;7.47;;
14768;SDS011;7476;49.404;11.152;2022-10-31T08:08:14;8.13;;;6.47;;
14768;SDS011;7476;49.404;11.152;2022-10-31T08:10:41;10.27;;;7.10;;
14768;SDS011;7476;49.404;11.152;2022-10-31T08:13:09;10.63;;;7.13;;
14768;SDS011;7476;49.404;11.152;2022-10-31T08:15:37;12.73;;;6.80;;
14768;SDS011;7476;49.404;11.152;2022-10-31T08:18:10;9.90;;;6.93;;
14768;SDS011;7476;49.404;11.152;2022-10-31T08:20:38;12.07;;;7.47;;
14768;SDS011;7476;49.404;11.152;2022-10-31T08:23:05;9.43;;;6.70;;
14768;SDS011;7476;49.404;11.152;2022-10-31T08:25:33;10.63;;;6.87;;
14768;SDS011;7476;49.404;11.152;2022-10-31T08:28:01;11.70;;;7.57;;
14768;SDS011;7476;49.404;11.152;2022-10-31T08:30:29;7.87;;;6.80;;
14768;SDS011;7476;49.404;11.152;2022-10-31T08:32:58;12.90;;;7.47;;
14768;SDS011;7476;49.404;11.152;2022-10-31T08:35:27;10.23;;;7.20;;
14768;SDS011;7476;49.404;11.152;2022-10-31T08:37:54;9.50;;;7.00;;
14768;SDS011;7476;49.404;11.152;2022-10-31T08:40:21;10.57;;;6.67;;
14768;SDS011;7476;49.404;11.152;2022-10-31T08:42:55;11.07;;;7.27;;
14768;SDS011;7476;49.404;11.152;2022-10-31T08:45:22;10.77;;;6.63;;
14768;SDS011;7476;49.404;11.152;2022-10-31T08:47:49;10.20;;;7.33;;
14768;SDS011;7476;49.404;11.152;2022-10-31T08:50:16;9.97;;;6.73;;
14768;SDS011;7476;49.404;11.152;2022-10-31T08:52:44;9.00;;;7.17;;
14768;SDS011;7476;49.404;11.152;2022-10-31T08:55:11;8.90;;;7.00;;
14768;SDS011;7476;49.404;11.152;2022-10-31T08:57:38;8.70;;;6.53;;
14768;SDS011;7476;49.404;11.152;2022-10-31T09:00:05;10.00;;;7.03;;
14768;SDS011;7476;49.404;11.152;2022-10-31T09:02:33;10.83;;;7.10;;
14768;SDS011;7476;49.404;11.152;2022-10-31T09:04:59;10.03;;;7.37;;
14768;SDS011;7476;49.404;11.152;2022-10-31T09:07:26;10.60;;;7.07;;
14768;SDS011;7476;49.404;11.152;2022-10-31T09:09:54;8.67;;;6.77;;
14768;SDS011;7476;49.404;11.152;2022-10-31T09:12:21;10.33;;;7.37;;
14768;SDS011;7476;49.404;11.152;2022-10-31T09:14:49;8.40;;;7.40;;
14768;SDS011;7476;49.404;11.152;2022-10-31T09:17:15;11.67;;;7.10;;
14768;SDS011;7476;49.404;11.152;2022-10-31T09:19:42;8.77;;;7.47;;
14768;SDS011;7476;49.404;11.152;2022-10-31T09:22:09;7.90;;;6.97;;
14768;SDS011;7476;49.404;11.152;2022-10-31T09:24:36;12.30;;;7.30;;
14768;SDS011;7476;49.404;11.152;2022-10-31T09:27:04;11.23;;;7.80;;
14768;SDS011;7476;49.404;11.152;2022-10-31T09:29:30;12.50;;;7.33;;
14768;SDS011;7476;49.404;11.152;2022-10-31T09:31:57;7.60;;;6.67;;
14768;SDS011;7476;49.404;11.152;2022-10-31T09:34:24;12.23;;;7.07;;
14768;SDS011;7476;49.404;11.152;2022-10-31T09:36:52;10.10;;;7.10;;
14768;SDS011;7476;49.404;11.152;2022-10-31T09:39:19;11.83;;;7.60;;
14768;SDS011;7476;49.404;11.152;2022-10-31T09:41:49;11.10;;;6.87;;
14768;SDS011;7476;49.404;11.152;2022-10-31T09:44:33;10.83;;;6.90;;
14768;SDS011;7476;49.404;11.152;2022-10-31T09:47:10;10.23;;;6.80;;
14768;SDS011;7476;49.404;11.152;2022-10-31T09:49:49;9.80;;;7.23;;
14768;SDS011;7476;49.404;11.152;2022-10-31T09:52:26;11.53;;;7.00;;
14768;SDS011;7476;49.404;11.152;2022-10-31T09:54:57;12.80;;;7.00;;
14768;SDS011;7476;49.404;11.152;2022-10-31T09:57:27;13.50;;;6.73;;
14768;SDS011;7476;49.404;11.152;2022-10-31T09:59:58;9.20;;;7.07;;
14768;SDS011;7476;49.404;11.152;2022-10-31T10:02:38;11.17;;;6.57;;
14768;SDS011;7476;49.404;11.152;2022-10-31T10:05:09;13.40;;;7.33;;
14768;SDS011;7476;49.404;11.152;2022-10-31T10:07:40;10.80;;;6.40;;
14768;SDS011;7476;49.404;11.152;2022-10-31T10:10:14;10.33;;;6.43;;
14768;SDS011;7476;49.404;11.152;2022-10-31T10:12:47;10.90;;;6.50;;
14768;SDS011;7476;49.404;11.152;2022-10-31T10:15:31;13.40;;;6.23;;
14768;SDS011;7476;49.404;11.152;2022-10-31T10:18:08;9.93;;;6.10;;
14768;SDS011;7476;49.404;11.152;2022-10-31T10:20:51;9.80;;;6.43;;
14768;SDS011;7476;49.404;11.152;2022-10-31T10:23:29;8.43;;;5.87;;
14768;SDS011;7476;49.404;11.152;2022-10-31T10:26:04;10.50;;;6.13;;
14768;SDS011;7476;49.404;11.152;2022-10-31T10:28:41;10.40;;;5.83;;
14768;SDS011;7476;49.404;11.152;2022-10-31T10:31:13;10.23;;;6.10;;
14768;SDS011;7476;49.404;11.152;2022-10-31T10:33:43;8.03;;;5.80;;
14768;SDS011;7476;49.404;11.152;2022-10-31T10:36:20;9.67;;;6.00;;
14768;SDS011;7476;49.404;11.152;2022-10-31T10:38:52;10.33;;;6.00;;
14768;SDS011;7476;49.404;11.152;2022-10-31T10:41:23;7.57;;;5.33;;
14768;SDS011;7476;49.404;11.152;2022-10-31T10:43:53;8.83;;;5.07;;
14768;SDS011;7476;49.404;11.152;2022-10-31T10:46:21;11.03;;;6.10;;
14768;SDS011;7476;49.404;11.152;2022-10-31T10:49:14;6.80;;;5.10;;
14768;SDS011;7476;49.404;11.152;2022-10-31T10:51:44;12.20;;;5.70;;
14768;SDS011;7476;49.404;11.152;2022-10-31T10:54:17;8.60;;;5.20;;
14768;SDS011;7476;49.404;11.152;2022-10-31T10:56:56;7.13;;;5.00;;
14768;SDS011;7476;49.404;11.152;2022-10-31T10:59:28;9.47;;;5.13;;
14768;SDS011;7476;49.404;11.152;2022-10-31T11:01:58;10.13;;;5.37;;
14768;SDS011;7476;49.404;11.152;2022-10-31T11:04:29;8.33;;;5.13;;
14768;SDS011;7476;49.404;11.152;2022-10-31T11:06:58;7.87;;;5.23;;
14768;SDS011;7476;49.404;11.152;2022-10-31T11:09:26;8.03;;;5.77;;
14768;SDS011;7476;49.404;11.152;2022-10-31T11:11:53;7.97;;;5.07;;
14768;SDS011;7476;49.404;11.152;2022-10-31T11:14:20;9.07;;;5.17;;
14768;SDS011;7476;49.404;11.152;2022-10-31T11:16:48;9.47;;;5.60;;
14768;SDS011;7476;49.404;11.152;2022-10-31T11:19:19;7.17;;;4.97;;
14768;SDS011;7476;49.404;11.152;2022-10-31T11:21:47;14.23;;;5.00;;
14768;SDS011;7476;49.404;11.152;2022-10-31T11:24:16;10.53;;;5.50;;
14768;SDS011;7476;49.404;11.152;2022-10-31T11:26:45;7.73;;;5.27;;
14768;SDS011;7476;49.404;11.152;2022-10-31T11:29:14;8.23;;;5.00;;
14768;SDS011;7476;49.404;11.152;2022-10-31T11:31:43;7.87;;;5.10;;
14768;SDS011;7476;49.404;11.152;2022-10-31T11:34:16;9.60;;;5.17;;
14768;SDS011;7476;49.404;11.152;2022-10-31T11:36:58;8.83;;;5.13;;
14768;SDS011;7476;49.404;11.152;2022-10-31T11:39:30;9.43;;;5.13;;
14768;SDS011;7476;49.404;11.152;2022-10-31T11:41:59;5.77;;;4.73;;
14768;SDS011;7476;49.404;11.152;2022-10-31T11:44:28;7.80;;;5.27;;
14768;SDS011;7476;49.404;11.152;2022-10-31T11:46:58;9.23;;;5.80;;
14768;SDS011;7476;49.404;11.152;2022-10-31T11:49:30;7.07;;;5.07;;
14768;SDS011;7476;49.404;11.152;2022-10-31T11:52:01;7.87;;;4.63;;
14768;SDS011;7476;49.404;11.152;2022-10-31T11:54:32;7.67;;;5.27;;
14768;SDS011;7476;49.404;11.152;2022-10-31T11:57:01;8.33;;;5.00;;
14768;SDS011;7476;49.404;11.152;2022-10-31T11:59:29;9.87;;;4.90;;
14768;SDS011;7476;49.404;11.152;2022-10-31T12:02:00;13.20;;;5.50;;
14768;SDS011;7476;49.404;11.152;2022-10-31T12:04:31;7.27;;;4.60;;
14768;SDS011;7476;49.404;11.152;2022-10-31T12:07:03;7.47;;;5.13;;
14768;SDS011;7476;49.404;11.152;2022-10-31T12:09:32;10.93;;;5.90;;
14768;SDS011;7476;49.404;11.152;2022-10-31T12:12:05;9.57;;;4.80;;
14768;SDS011;7476;49.404;11.152;2022-10-31T12:15:13;9.20;;;4.43;;
14768;SDS011;7476;49.404;11.152;2022-10-31T12:18:03;9.47;;;4.83;;
14768;SDS011;7476;49.404;11.152;2022-10-31T12:20:47;9.43;;;4.97;;
14768;SDS011;7476;49.404;11.152;2022-10-31T12:23:24;8.70;;;4.63;;
14768;SDS011;7476;49.404;11.152;2022-10-31T12:26:01;8.27;;;4.40;;
14768;SDS011;7476;49.404;11.152;2022-10-31T12:28:47;8.23;;;4.47;;
14768;SDS011;7476;49.404;11.152;2022-10-31T12:31:30;9.20;;;4.70;;
14768;SDS011;7476;49.404;11.152;2022-10-31T12:34:14;9.17;;;4.70;;
14768;SDS011;7476;49.404;11.152;2022-10-31T12:36:59;9.57;;;4.53;;
14768;SDS011;7476;49.404;11.152;2022-10-31T12:39:33;7.07;;;4.37;;
14768;SDS011;7476;49.404;11.152;2022-10-31T12:42:11;9.33;;;4.67;;
14768;SDS011;7476;49.404;11.152;2022-10-31T12:44:55;8.13;;;4.50;;
14768;SDS011;7476;49.404;11.152;2022-10-31T12:47:44;10.93;;;4.23;;
14768;SDS011;7476;49.404;11.152;2022-10-31T12:50:40;7.70;;;4.38;;
14768;SDS011;7476;49.404;11.152;2022-10-31T12:53:21;6.90;;;4.53;;
14768;SDS011;7476;49.404;11.152;2022-10-31T12:56:00;7.03;;;3.90;;
14768;SDS011;7476;49.404;11.152;2022-10-31T12:58:37;8.38;;;4.20;;
14768;SDS011;7476;49.404;11.152;2022-10-31T13:01:12;8.38;;;4.57;;
14768;SDS011;7476;49.404;11.152;2022-10-31T13:03:44;6.90;;;3.88;;
14768;SDS011;7476;49.404;11.152;2022-10-31T13:06:16;8.65;;;4.30;;
14768;SDS011;7476;49.404;11.152;2022-10-31T13:08:49;6.50;;;3.05;;
14768;SDS011;7476;49.404;11.152;2022-10-31T13:11:19;8.87;;;3.10;;
14768;SDS011;7476;49.404;11.152;2022-10-31T13:13:53;7.93;;;2.83;;
14768;SDS011;7476;49.404;11.152;2022-10-31T13:16:25;6.33;;;3.30;;
14768;SDS011;7476;49.404;11.152;2022-10-31T13:18:55;7.00;;;2.67;;
14768;SDS011;7476;49.404;11.152;2022-10-31T13:21:27;5.73;;;2.90;;
14768;SDS011;7476;49.404;11.152;2022-10-31T13:24:03;6.80;;;2.60;;
14768;SDS011;7476;49.404;11.152;2022-10-31T13:26:37;5.87;;;2.80;;
14768;SDS011;7476;49.404;11.152;2022-10-31T13:29:09;6.47;;;3.00;;
14768;SDS011;7476;49.404;11.152;2022-10-31T13:31:42;8.37;;;2.93;;
14768;SDS011;7476;49.404;11.152;2022-10-31T13:34:10;6.60;;;2.90;;
14768;SDS011;7476;49.404;11.152;2022-10-31T13:36:49;4.83;;;2.50;;
14768;SDS011;7476;49.404;11.152;2022-10-31T13:39:28;6.97;;;2.80;;
14768;SDS011;7476;49.404;11.152;2022-10-31T13:42:05;6.37;;;2.87;;
14768;SDS011;7476;49.404;11.152;2022-10-31T13:44:40;6.53;;;2.73;;
14768;SDS011;7476;49.404;11.152;2022-10-31T13:47:20;8.73;;;2.70;;
14768;SDS011;7476;49.404;11.152;2022-10-31T13:49:48;4.63;;;2.63;;
14768;SDS011;7476;49.404;11.152;2022-10-31T13:52:17;4.33;;;2.60;;
14768;SDS011;7476;49.404;11.152;2022-10-31T13:54:51;6.47;;;2.70;;
14768;SDS011;7476;49.404;11.152;2022-10-31T13:57:23;9.23;;;3.10;;
14768;SDS011;7476;49.404;11.152;2022-10-31T13:59:56;5.37;;;3.00;;
14768;SDS011;7476;49.404;11.152;2022-10-31T14:02:26;8.67;;;2.73;;
14768;SDS011;7476;49.404;11.152;2022-10-31T14:04:55;6.07;;;2.60;;
14768;SDS011;7476;49.404;11.152;2022-10-31T14:07:24;5.50;;;2.87;;
14768;SDS011;7476;49.404;11.152;2022-10-31T14:09:55;6.17;;;3.40;;
14768;SDS011;7476;49.404;11.152;2022-10-31T14:12:25;4.90;;;2.90;;
14768;SDS011;7476;49.404;11.152;2022-10-31T14:14:57;7.90;;;3.20;;
14768;SDS011;7476;49.404;11.152;2022-10-31T14:17:27;8.73;;;2.87;;
14768;SDS011;7476;49.404;11.152;2022-10-31T14:20:00;6.30;;;2.90;;
14768;SDS011;7476;49.404;11.152;2022-10-31T14:22:47;5.47;;;2.77;;
14768;SDS011;7476;49.404;11.152;2022-10-31T14:25:26;7.90;;;3.37;;
14768;SDS011;7476;49.404;11.152;2022-10-31T14:27:55;6.53;;;2.90;;
14768;SDS011;7476;49.404;11.152;2022-10-31T14:30:23;5.40;;;2.70;;
14768;SDS011;7476;49.404;11.152;2022-10-31T14:32:53;6.40;;;3.30;;
14768;SDS011;7476;49.404;11.152;2022-10-31T14:35:23;9.93;;;3.00;;
14768;SDS011;7476;49.404;11.152;2022-10-31T14:38:03;6.97;;;3.53;;
14768;SDS011;7476;49.404;11.152;2022-10-31T14:40:39;6.83;;;2.80;;
14768;SDS011;7476;49.404;11.152;2022-10-31T14:43:19;8.20;;;2.83;;
14768;SDS011;7476;49.404;11.152;2022-10-31T14:46:06;8.87;;;3.30;;
14768;SDS011;7476;49.404;11.152;2022-10-31T14:48:48;6.87;;;3.13;;
14768;SDS011;7476;49.404;11.152;2022-10-31T14:51:35;7.27;;;3.30;;
14768;SDS011;7476;49.404;11.152;2022-10-31T14:54:05;5.43;;;3.00;;
14768;SDS011;7476;49.404;11.152;2022-10-31T14:56:35;8.17;;;3.13;;
14768;SDS011;7476;49.404;11.152;2022-10-31T14:59:08;5.87;;;3.00;;
14768;SDS011;7476;49.404;11.152;2022-10-31T15:01:38;6.30;;;3.33;;
14768;SDS011;7476;49.404;11.152;2022-10-31T15:04:07;4.67;;;2.90;;
14768;SDS011;7476;49.404;11.152;2022-10-31T15:06:40;5.20;;;2.90;;